createdAt,value
2016-12-21T00:00:07.258Z,21.21
2016-12-21T00:01:07.283Z,21.27
2016-12-21T00:02:07.607Z,21.25
2016-12-21T00:03:07.632Z,21.24
2016-12-21T00:04:07.661Z,21.28
2016-12-21T00:05:07.382Z,21.27
2016-12-21T00:06:07.722Z,21.13
2016-12-21T00:07:07.439Z,21.21
2016-12-21T00:08:08.071Z,21.22
2016-12-21T00:09:07.501Z,21.14
2016-12-21T00:10:08.146Z,21.22
2016-12-21T00:11:08.162Z,21.19
2016-12-21T00:12:07.907Z,21.19
2016-12-21T00:13:08.212Z,21.22
2016-12-21T00:14:08.244Z,21.16
2016-12-21T00:15:07.961Z,21.14
2016-12-21T00:16:08.290Z,21.1
2016-12-21T00:17:07.717Z,21.13
2016-12-21T00:18:07.743Z,21.14
2016-12-21T00:19:08.073Z,21.07
2016-12-21T00:20:08.405Z,21.1
2016-12-21T00:21:08.122Z,21.16
2016-12-21T00:22:07.851Z,21.09
2016-12-21T00:23:08.179Z,21.14
2016-12-21T00:24:08.204Z,21.14
2016-12-21T00:25:08.237Z,21.12
2016-12-21T00:26:07.958Z,21.06
2016-12-21T00:27:07.991Z,21.07
2016-12-21T00:28:08.316Z,21.07
2016-12-21T00:29:08.048Z,21.06
2016-12-21T00:30:08.374Z,21.09
2016-12-21T00:31:08.398Z,21.06
2016-12-21T00:32:08.734Z,21.04
2016-12-21T00:33:08.451Z,21.12
2016-12-21T00:34:08.490Z,21.03
2016-12-21T00:35:08.601Z,21.03
2016-12-21T00:36:08.841Z,21.06
2016-12-21T00:37:08.570Z,21.03
2016-12-21T00:38:08.588Z,21.07
2016-12-21T00:39:08.317Z,20.99
2016-12-21T00:40:08.649Z,20.94
2016-12-21T00:41:08.974Z,20.99
2016-12-21T00:42:08.705Z,21.03
2016-12-21T00:43:08.727Z,20.99
2016-12-21T00:44:08.752Z,21.03
2016-12-21T00:45:08.789Z,20.95
2016-12-21T00:46:08.522Z,20.97
2016-12-21T00:47:09.143Z,20.92
2016-12-21T00:48:08.871Z,20.97
2016-12-21T00:49:08.924Z,20.92
2016-12-21T00:50:08.913Z,20.95
2016-12-21T00:51:08.642Z,20.94
2016-12-21T00:52:08.675Z,21.03
2016-12-21T00:53:08.995Z,20.89
2016-12-21T00:54:09.336Z,20.87
2016-12-21T00:55:08.749Z,20.82
2016-12-21T00:56:08.782Z,20.88
2016-12-21T00:57:09.410Z,20.89
2016-12-21T00:58:09.434Z,20.84
2016-12-21T00:59:09.455Z,20.87
2016-12-21T01:00:09.196Z,20.87
2016-12-21T01:01:09.221Z,20.85
2016-12-21T01:02:08.937Z,20.85
2016-12-21T01:03:09.293Z,20.85
2016-12-21T01:04:09.602Z,20.87
2016-12-21T01:05:09.327Z,20.87
2016-12-21T01:06:09.043Z,20.79
2016-12-21T01:07:09.684Z,20.79
2016-12-21T01:08:09.101Z,20.79
2016-12-21T01:09:09.429Z,20.82
2016-12-21T01:10:09.454Z,20.73
2016-12-21T01:11:09.787Z,20.74
2016-12-21T01:12:09.206Z,20.76
2016-12-21T01:13:09.236Z,20.8
2016-12-21T01:14:09.569Z,20.73
2016-12-21T01:15:09.590Z,20.69
2016-12-21T01:16:09.618Z,20.7
2016-12-21T01:17:09.330Z,20.77
2016-12-21T01:18:09.663Z,20.62
2016-12-21T01:19:10.008Z,20.76
2016-12-21T01:20:09.729Z,20.69
2016-12-21T01:21:09.481Z,20.74
2016-12-21T01:22:10.095Z,20.64
2016-12-21T01:23:09.803Z,20.61
2016-12-21T01:24:09.522Z,20.74
2016-12-21T01:25:09.851Z,20.72
2016-12-21T01:26:09.888Z,20.64
2016-12-21T01:27:10.213Z,20.76
2016-12-21T01:28:09.625Z,20.67
2016-12-21T01:29:09.967Z,20.67
2016-12-21T01:30:09.691Z,20.66
2016-12-21T01:31:10.024Z,20.52
2016-12-21T01:32:09.748Z,20.66
2016-12-21T01:33:10.382Z,20.62
2016-12-21T01:34:09.793Z,20.61
2016-12-21T01:35:09.826Z,20.64
2016-12-21T01:36:10.467Z,20.61
2016-12-21T01:37:10.180Z,20.61
2016-12-21T01:38:10.209Z,20.62
2016-12-21T01:39:09.933Z,20.66
2016-12-21T01:40:10.570Z,20.55
2016-12-21T01:41:10.282Z,20.62
2016-12-21T01:42:10.315Z,20.61
2016-12-21T01:43:10.336Z,20.58
2016-12-21T01:44:10.094Z,20.57
2016-12-21T01:45:10.701Z,20.55
2016-12-21T01:46:10.126Z,20.58
2016-12-21T01:47:10.451Z,20.54
2016-12-21T01:48:10.479Z,20.55
2016-12-21T01:49:10.504Z,20.55
2016-12-21T01:50:10.839Z,20.5
2016-12-21T01:51:10.249Z,20.43
2016-12-21T01:52:10.581Z,20.5
2016-12-21T01:53:10.610Z,20.48
2016-12-21T01:54:10.943Z,20.43
2016-12-21T01:55:10.664Z,20.47
2016-12-21T01:56:10.693Z,20.41
2016-12-21T01:57:10.713Z,20.51
2016-12-21T01:58:10.733Z,20.43
2016-12-21T01:59:10.470Z,20.41
2016-12-21T02:00:10.791Z,20.5
2016-12-21T02:01:10.828Z,20.5
2016-12-21T02:02:10.849Z,20.41
2016-12-21T02:03:10.578Z,20.51
2016-12-21T02:04:11.210Z,20.39
2016-12-21T02:05:10.935Z,20.47
2016-12-21T02:06:10.652Z,20.48
2016-12-21T02:07:10.984Z,20.42
2016-12-21T02:08:10.701Z,20.39
2016-12-21T02:09:10.737Z,20.42
2016-12-21T02:10:10.761Z,20.42
2016-12-21T02:11:10.783Z,20.38
2016-12-21T02:12:11.432Z,20.38
2016-12-21T02:13:11.148Z,20.36
2016-12-21T02:14:11.469Z,20.38
2016-12-21T02:15:11.497Z,20.39
2016-12-21T02:16:10.922Z,20.35
2016-12-21T02:17:10.942Z,20.36
2016-12-21T02:18:10.975Z,20.35
2016-12-21T02:19:11.308Z,20.39
2016-12-21T02:20:11.337Z,20.35
2016-12-21T02:21:11.662Z,20.35
2016-12-21T02:22:11.382Z,20.43
2016-12-21T02:23:11.710Z,20.32
2016-12-21T02:24:11.435Z,20.33
2016-12-21T02:25:11.160Z,20.31
2016-12-21T02:26:11.792Z,20.33
2016-12-21T02:27:11.217Z,20.31
2016-12-21T02:28:11.854Z,20.29
2016-12-21T02:29:11.595Z,20.33
2016-12-21T02:30:11.603Z,20.33
2016-12-21T02:31:11.313Z,20.23
2016-12-21T02:32:11.352Z,20.32
2016-12-21T02:33:11.977Z,20.33
2016-12-21T02:34:11.394Z,20.28
2016-12-21T02:35:11.439Z,20.23
2016-12-21T02:36:12.063Z,20.29
2016-12-21T02:37:11.488Z,20.23
2016-12-21T02:38:11.857Z,20.28
2016-12-21T02:39:12.149Z,20.21
2016-12-21T02:40:12.170Z,20.18
2016-12-21T02:41:11.884Z,20.18
2016-12-21T02:42:11.919Z,20.2
2016-12-21T02:43:11.643Z,20.18
2016-12-21T02:44:12.277Z,20.18
2016-12-21T02:45:12.305Z,20.17
2016-12-21T02:46:12.330Z,20.13
2016-12-21T02:47:12.366Z,20.17
2016-12-21T02:48:12.383Z,20.14
2016-12-21T02:49:11.799Z,20.14
2016-12-21T02:50:12.160Z,20.11
2016-12-21T02:51:12.153Z,20.14
2016-12-21T02:52:12.183Z,20.16
2016-12-21T02:53:12.214Z,20.21
2016-12-21T02:54:11.938Z,20.21
2016-12-21T02:55:12.263Z,20.17
2016-12-21T02:56:12.284Z,20.16
2016-12-21T02:57:12.321Z,20.2
2016-12-21T02:58:12.341Z,20.23
2016-12-21T02:59:12.377Z,20.14
2016-12-21T03:00:12.398Z,20.18
2016-12-21T03:01:12.427Z,20.16
2016-12-21T03:02:12.151Z,20.2
2016-12-21T03:03:12.776Z,20.06
2016-12-21T03:04:12.845Z,20.16
2016-12-21T03:05:12.533Z,20.03
2016-12-21T03:06:12.255Z,20.14
2016-12-21T03:07:12.278Z,20.06
2016-12-21T03:08:12.312Z,19.98
2016-12-21T03:09:12.640Z,20.13
2016-12-21T03:10:12.968Z,20.03
2016-12-21T03:11:12.382Z,20.14
2016-12-21T03:12:12.705Z,20.14
2016-12-21T03:13:13.041Z,20.02
2016-12-21T03:14:12.470Z,20.01
2016-12-21T03:15:12.491Z,20.06
2016-12-21T03:16:12.520Z,20.05
2016-12-21T03:17:12.852Z,20.06
2016-12-21T03:18:12.877Z,20.08
2016-12-21T03:19:13.238Z,20.05
2016-12-21T03:20:12.919Z,20.06
2016-12-21T03:21:12.950Z,20.05
2016-12-21T03:22:12.975Z,20.08
2016-12-21T03:23:13.000Z,20.06
2016-12-21T03:24:13.342Z,20.01
2016-12-21T03:25:13.069Z,20.06
2016-12-21T03:26:13.114Z,20.06
2016-12-21T03:27:12.814Z,19.99
2016-12-21T03:28:12.835Z,20.01
2016-12-21T03:29:13.155Z,19.99
2016-12-21T03:30:13.480Z,20.13
2016-12-21T03:31:12.908Z,20.08
2016-12-21T03:32:13.237Z,20.03
2016-12-21T03:33:13.269Z,19.96
2016-12-21T03:34:13.302Z,20.02
2016-12-21T03:35:13.619Z,19.96
2016-12-21T03:36:13.348Z,19.99
2016-12-21T03:37:13.060Z,19.96
2016-12-21T03:38:13.405Z,19.96
2016-12-21T03:39:13.425Z,19.96
2016-12-21T03:40:13.153Z,19.92
2016-12-21T03:41:13.491Z,19.96
2016-12-21T03:42:13.204Z,19.96
2016-12-21T03:43:13.540Z,19.96
2016-12-21T03:44:13.249Z,20.03
2016-12-21T03:45:13.281Z,19.96
2016-12-21T03:46:13.305Z,19.96
2016-12-21T03:47:13.334Z,19.99
2016-12-21T03:48:13.357Z,19.94
2016-12-21T03:49:13.996Z,19.99
2016-12-21T03:50:13.416Z,19.96
2016-12-21T03:51:13.744Z,19.95
2016-12-21T03:52:13.761Z,19.95
2016-12-21T03:53:13.485Z,19.98
2016-12-21T03:54:13.513Z,19.95
2016-12-21T03:55:13.543Z,19.95
2016-12-21T03:56:14.176Z,19.96
2016-12-21T03:57:13.905Z,19.94
2016-12-21T03:58:14.234Z,19.98
2016-12-21T03:59:13.962Z,20.01
2016-12-21T04:00:13.982Z,19.96
2016-12-21T04:01:14.317Z,19.94
2016-12-21T04:02:14.024Z,19.96
2016-12-21T04:03:13.761Z,19.98
2016-12-21T04:04:14.394Z,19.98
2016-12-21T04:05:14.422Z,19.96
2016-12-21T04:06:13.835Z,19.94
2016-12-21T04:07:14.164Z,19.88
2016-12-21T04:08:14.493Z,19.91
2016-12-21T04:09:14.209Z,19.87
2016-12-21T04:10:14.246Z,19.94
2016-12-21T04:11:14.278Z,19.98
2016-12-21T04:12:14.599Z,19.98
2016-12-21T04:13:14.332Z,19.95
2016-12-21T04:14:14.657Z,19.98
2016-12-21T04:15:14.382Z,19.88
2016-12-21T04:16:14.403Z,19.88
2016-12-21T04:17:14.119Z,19.88
2016-12-21T04:18:14.465Z,19.92
2016-12-21T04:19:14.180Z,19.86
2016-12-21T04:20:14.506Z,19.86
2016-12-21T04:21:14.542Z,19.91
2016-12-21T04:22:14.567Z,19.88
2016-12-21T04:23:14.896Z,19.83
2016-12-21T04:24:14.909Z,19.84
2016-12-21T04:25:14.641Z,19.84
2016-12-21T04:26:14.665Z,19.88
2016-12-21T04:27:14.390Z,19.91
2016-12-21T04:28:15.035Z,19.84
2016-12-21T04:29:14.752Z,19.84
2016-12-21T04:30:14.777Z,19.83
2016-12-21T04:31:14.805Z,19.81
2016-12-21T04:32:14.863Z,19.81
2016-12-21T04:33:14.543Z,19.91
2016-12-21T04:34:14.875Z,19.8
2016-12-21T04:35:14.907Z,19.87
2016-12-21T04:36:14.941Z,19.92
2016-12-21T04:37:14.652Z,19.91
2016-12-21T04:38:14.983Z,19.87
2016-12-21T04:39:15.016Z,19.84
2016-12-21T04:40:15.340Z,19.8
2016-12-21T04:41:14.760Z,19.76
2016-12-21T04:42:15.393Z,19.77
2016-12-21T04:43:14.818Z,19.81
2016-12-21T04:44:15.156Z,19.83
2016-12-21T04:45:14.868Z,19.76
2016-12-21T04:46:15.516Z,19.73
2016-12-21T04:47:14.906Z,19.83
2016-12-21T04:48:14.945Z,19.76
2016-12-21T04:49:14.973Z,19.88
2016-12-21T04:50:14.994Z,19.71
2016-12-21T04:51:15.631Z,19.71
2016-12-21T04:52:15.668Z,19.78
2016-12-21T04:53:15.079Z,19.77
2016-12-21T04:54:15.422Z,19.8
2016-12-21T04:55:15.726Z,19.78
2016-12-21T04:56:15.155Z,19.68
2016-12-21T04:57:15.794Z,19.77
2016-12-21T04:58:15.217Z,19.74
2016-12-21T04:59:15.241Z,19.78
2016-12-21T05:00:15.574Z,19.77
2016-12-21T05:01:15.290Z,19.69
2016-12-21T05:02:15.615Z,19.81
2016-12-21T05:03:15.648Z,19.68
2016-12-21T05:04:15.672Z,19.71
2016-12-21T05:05:15.401Z,19.69
2016-12-21T05:06:15.414Z,19.76
2016-12-21T05:07:15.751Z,19.66
2016-12-21T05:08:15.472Z,19.74
2016-12-21T05:09:15.807Z,19.69
2016-12-21T05:10:16.137Z,19.77
2016-12-21T05:11:15.853Z,19.71
2016-12-21T05:12:15.878Z,19.65
2016-12-21T05:13:15.607Z,19.74
2016-12-21T05:14:15.628Z,19.74
2016-12-21T05:15:16.264Z,19.71
2016-12-21T05:16:15.989Z,19.69
2016-12-21T05:17:16.018Z,19.66
2016-12-21T05:18:15.743Z,19.71
2016-12-21T05:19:16.383Z,19.71
2016-12-21T05:20:16.096Z,19.61
2016-12-21T05:21:15.813Z,19.65
2016-12-21T05:22:15.848Z,19.74
2016-12-21T05:23:16.166Z,19.74
2016-12-21T05:24:15.899Z,19.66
2016-12-21T05:25:15.921Z,19.69
2016-12-21T05:26:15.941Z,19.69
2016-12-21T05:27:16.277Z,19.65
2016-12-21T05:28:16.301Z,19.73
2016-12-21T05:29:16.335Z,19.73
2016-12-21T05:30:16.664Z,19.68
2016-12-21T05:31:16.384Z,19.78
2016-12-21T05:32:16.409Z,19.77
2016-12-21T05:33:16.138Z,19.77
2016-12-21T05:34:16.465Z,19.8
2016-12-21T05:35:16.175Z,19.88
2016-12-21T05:36:16.508Z,19.87
2016-12-21T05:37:16.541Z,19.83
2016-12-21T05:38:16.581Z,19.84
2016-12-21T05:39:16.295Z,19.96
2016-12-21T05:40:16.917Z,19.96
2016-12-21T05:41:16.380Z,19.99
2016-12-21T05:42:16.984Z,19.95
2016-12-21T05:43:16.697Z,19.98
2016-12-21T05:44:16.453Z,20.06
2016-12-21T05:45:16.754Z,19.91
2016-12-21T05:46:17.085Z,20.08
2016-12-21T05:47:16.808Z,20.01
2016-12-21T05:48:16.828Z,20.06
2016-12-21T05:49:17.169Z,20.11
2016-12-21T05:50:17.186Z,20.06
2016-12-21T05:51:16.915Z,20.16
2016-12-21T05:52:16.933Z,20.2
2016-12-21T05:53:16.960Z,20.17
2016-12-21T05:54:17.283Z,20.21
2016-12-21T05:55:16.710Z,20.21
2016-12-21T05:56:17.342Z,20.18
2016-12-21T05:57:17.068Z,20.26
2016-12-21T05:58:16.792Z,20.31
2016-12-21T05:59:17.438Z,20.32
2016-12-21T06:00:16.837Z,20.24
2016-12-21T06:01:17.174Z,20.32
2016-12-21T06:02:16.888Z,20.36
2016-12-21T06:03:17.231Z,20.35
2016-12-21T06:04:17.256Z,20.36
2016-12-21T06:05:16.974Z,20.36
2016-12-21T06:06:17.002Z,20.48
2016-12-21T06:07:17.027Z,20.38
2016-12-21T06:08:17.667Z,20.42
2016-12-21T06:09:17.076Z,20.52
2016-12-21T06:10:17.117Z,20.47
2016-12-21T06:11:17.433Z,20.51
2016-12-21T06:12:17.466Z,20.48
2016-12-21T06:13:17.499Z,20.52
2016-12-21T06:14:17.519Z,20.55
2016-12-21T06:15:17.549Z,20.51
2016-12-21T06:16:17.877Z,20.64
2016-12-21T06:17:17.906Z,20.62
2016-12-21T06:18:17.621Z,20.64
2016-12-21T06:19:17.650Z,20.66
2016-12-21T06:20:17.378Z,20.72
2016-12-21T06:21:17.702Z,20.72
2016-12-21T06:22:17.756Z,20.67
2016-12-21T06:23:17.804Z,20.62
2016-12-21T06:24:18.087Z,20.62
2016-12-21T06:25:17.505Z,20.64
2016-12-21T06:26:18.146Z,20.72
2016-12-21T06:27:17.863Z,20.76
2016-12-21T06:28:17.583Z,20.74
2016-12-21T06:29:17.907Z,20.77
2016-12-21T06:30:17.932Z,20.77
2016-12-21T06:31:17.973Z,20.77
2016-12-21T06:32:17.690Z,20.76
2016-12-21T06:33:18.022Z,20.73
2016-12-21T06:34:17.741Z,20.87
2016-12-21T06:35:17.768Z,20.88
2016-12-21T06:36:18.101Z,20.94
2016-12-21T06:37:18.125Z,20.88
2016-12-21T06:38:17.846Z,20.94
2016-12-21T06:39:17.871Z,20.87
2016-12-21T06:40:17.900Z,20.84
2016-12-21T06:41:18.546Z,21.01
2016-12-21T06:42:17.994Z,20.92
2016-12-21T06:43:18.598Z,20.95
2016-12-21T06:44:18.618Z,20.99
2016-12-21T06:45:18.347Z,20.91
2016-12-21T06:46:18.360Z,20.99
2016-12-21T06:47:18.392Z,21.04
2016-12-21T06:48:18.113Z,20.88
2016-12-21T06:49:18.453Z,20.94
2016-12-21T06:50:18.776Z,20.94
2016-12-21T06:51:18.199Z,20.97
2016-12-21T06:52:18.524Z,20.98
2016-12-21T06:53:18.553Z,20.94
2016-12-21T06:54:18.286Z,20.92
2016-12-21T06:55:18.598Z,20.98
2016-12-21T06:56:18.630Z,21.01
2016-12-21T06:57:18.355Z,20.94
2016-12-21T06:58:18.683Z,20.95
2016-12-21T06:59:18.709Z,20.99
2016-12-21T07:00:18.737Z,20.98
2016-12-21T07:01:19.075Z,20.97
2016-12-21T07:02:19.127Z,21.07
2016-12-21T07:03:18.823Z,20.98
2016-12-21T07:04:18.849Z,21.06
2016-12-21T07:05:18.565Z,20.99
2016-12-21T07:06:18.897Z,20.98
2016-12-21T07:07:18.618Z,20.97
2016-12-21T07:08:18.952Z,20.98
2016-12-21T07:09:18.680Z,21.06
2016-12-21T07:10:18.700Z,20.97
2016-12-21T07:11:19.034Z,21.01
2016-12-21T07:12:18.762Z,21.04
2016-12-21T07:13:19.087Z,21.03
2016-12-21T07:14:18.808Z,21.1
2016-12-21T07:15:18.832Z,20.94
2016-12-21T07:16:19.166Z,21.01
2016-12-21T07:17:19.185Z,21.1
2016-12-21T07:18:19.527Z,21.03
2016-12-21T07:19:18.943Z,21.06
2016-12-21T07:20:19.588Z,21.06
2016-12-21T07:21:18.997Z,21.07
2016-12-21T07:22:19.021Z,21.04
2016-12-21T07:23:19.654Z,21.07
2016-12-21T07:24:19.382Z,21.06
2016-12-21T07:25:19.106Z,21.12
2016-12-21T07:26:19.735Z,21.16
2016-12-21T07:27:19.468Z,21.13
2016-12-21T07:28:19.185Z,21.1
2016-12-21T07:29:19.518Z,21.13
2016-12-21T07:30:19.550Z,21.16
2016-12-21T07:31:19.564Z,21.13
2016-12-21T07:32:19.292Z,21.16
2016-12-21T07:33:19.624Z,21.16
2016-12-21T07:34:19.341Z,21.16
2016-12-21T07:35:19.669Z,21.16
2016-12-21T07:36:19.754Z,21.17
2016-12-21T07:37:19.727Z,21.14
2016-12-21T07:38:19.452Z,21.13
2016-12-21T07:39:19.789Z,21.06
2016-12-21T07:40:20.114Z,21.1
2016-12-21T07:41:19.842Z,21.16
2016-12-21T07:42:19.562Z,21.13
2016-12-21T07:43:20.192Z,21.13
2016-12-21T07:44:20.229Z,21.1
2016-12-21T07:45:19.949Z,21.1
2016-12-21T07:46:19.666Z,21.12
2016-12-21T07:47:19.994Z,21.06
2016-12-21T07:48:20.024Z,21.09
2016-12-21T07:49:20.357Z,21.09
2016-12-21T07:50:20.073Z,21.01
2016-12-21T07:51:20.109Z,21.04
2016-12-21T07:52:20.142Z,21.1
2016-12-21T07:53:19.859Z,21.06
2016-12-21T07:54:20.501Z,21.1
2016-12-21T07:55:20.524Z,21.07
2016-12-21T07:56:20.551Z,21.12
2016-12-21T07:57:20.566Z,21.01
2016-12-21T07:58:19.987Z,20.92
2016-12-21T07:59:20.320Z,20.95
2016-12-21T08:00:20.661Z,20.99
2016-12-21T08:01:20.685Z,20.94
2016-12-21T08:02:20.401Z,21.01
2016-12-21T08:03:20.730Z,20.95
2016-12-21T08:04:20.760Z,20.98
2016-12-21T08:05:20.484Z,20.99
2016-12-21T08:06:20.205Z,20.94
2016-12-21T08:07:20.846Z,20.94
2016-12-21T08:08:20.563Z,20.98
2016-12-21T08:09:20.600Z,20.89
2016-12-21T08:10:20.624Z,20.87
2016-12-21T08:11:20.945Z,20.84
2016-12-21T08:12:20.370Z,20.91
2016-12-21T08:13:20.698Z,20.91
2016-12-21T08:14:20.729Z,20.92
2016-12-21T08:15:20.748Z,20.92
2016-12-21T08:16:20.781Z,20.85
2016-12-21T08:17:20.814Z,20.88
2016-12-21T08:18:20.831Z,20.84
2016-12-21T08:19:20.883Z,20.92
2016-12-21T08:20:20.896Z,20.87
2016-12-21T08:21:20.917Z,20.84
2016-12-21T08:22:20.636Z,20.85
2016-12-21T08:23:20.657Z,20.72
2016-12-21T08:24:20.999Z,20.74
2016-12-21T08:25:21.335Z,20.73
2016-12-21T08:26:20.748Z,20.8
2016-12-21T08:27:20.797Z,20.76
2016-12-21T08:28:21.410Z,20.77
2016-12-21T08:29:21.143Z,20.79
2016-12-21T08:30:20.849Z,20.73
2016-12-21T08:31:21.500Z,20.73
2016-12-21T08:32:21.225Z,20.73
2016-12-21T08:33:20.933Z,20.7
2016-12-21T08:34:21.273Z,20.72
2016-12-21T08:35:20.993Z,20.76
2016-12-21T08:36:21.327Z,20.77
2016-12-21T08:37:21.348Z,20.66
2016-12-21T08:38:21.368Z,20.7
2016-12-21T08:39:21.102Z,20.76
2016-12-21T08:40:21.423Z,20.66
2016-12-21T08:41:21.486Z,20.59
2016-12-21T08:42:21.487Z,20.58
2016-12-21T08:43:21.213Z,20.69
2016-12-21T08:44:21.840Z,20.67
2016-12-21T08:45:21.261Z,20.67
2016-12-21T08:46:21.589Z,20.64
2016-12-21T08:47:21.306Z,20.67
2016-12-21T08:48:21.642Z,20.66
2016-12-21T08:49:21.684Z,20.61
2016-12-21T08:50:21.700Z,20.69
2016-12-21T08:51:21.420Z,20.61
2016-12-21T08:52:21.445Z,20.67
2016-12-21T08:53:22.084Z,20.62
2016-12-21T08:54:22.102Z,20.61
2016-12-21T08:55:22.129Z,20.62
2016-12-21T08:56:21.543Z,20.62
2016-12-21T08:57:21.576Z,20.62
2016-12-21T08:58:21.621Z,20.57
2016-12-21T08:59:21.937Z,20.5
2016-12-21T09:00:21.959Z,20.59
2016-12-21T09:01:21.687Z,20.55
2016-12-21T09:02:22.019Z,20.58
2016-12-21T09:03:21.740Z,20.55
2016-12-21T09:04:22.068Z,20.58
2016-12-21T09:05:22.408Z,20.59
2016-12-21T09:06:22.126Z,20.61
2016-12-21T09:07:22.143Z,20.52
2016-12-21T09:08:22.471Z,20.42
2016-12-21T09:09:22.503Z,20.54
2016-12-21T09:10:22.265Z,20.51
2016-12-21T09:11:22.257Z,20.52
2016-12-21T09:12:22.282Z,20.42
2016-12-21T09:13:22.306Z,20.54
2016-12-21T09:14:22.030Z,20.47
2016-12-21T09:15:22.063Z,20.42
2016-12-21T09:16:22.086Z,20.47
2016-12-21T09:17:22.421Z,20.47
2016-12-21T09:18:22.445Z,20.55
2016-12-21T09:19:22.474Z,20.55
2016-12-21T09:20:22.810Z,20.38
2016-12-21T09:21:22.526Z,20.48
2016-12-21T09:22:22.551Z,20.39
2016-12-21T09:23:22.276Z,20.41
2016-12-21T09:24:22.593Z,20.38
2016-12-21T09:25:22.638Z,20.38
2016-12-21T09:26:22.354Z,20.36
2016-12-21T09:27:22.991Z,20.36
2016-12-21T09:28:22.713Z,20.38
2016-12-21T09:29:22.744Z,20.38
2016-12-21T09:30:22.764Z,20.32
2016-12-21T09:31:22.486Z,20.36
2016-12-21T09:32:23.114Z,20.36
2016-12-21T09:33:22.850Z,20.36
2016-12-21T09:34:22.872Z,20.35
2016-12-21T09:35:23.209Z,20.32
2016-12-21T09:36:22.923Z,20.33
2016-12-21T09:37:22.945Z,20.36
2016-12-21T09:38:22.974Z,20.38
2016-12-21T09:39:22.703Z,20.29
2016-12-21T09:40:22.735Z,20.35
2016-12-21T09:41:23.055Z,20.29
2016-12-21T09:42:23.396Z,20.26
2016-12-21T09:43:23.114Z,20.29
2016-12-21T09:44:23.170Z,20.32
2016-12-21T09:45:23.163Z,20.24
2016-12-21T09:46:23.487Z,20.28
2016-12-21T09:47:22.921Z,20.32
2016-12-21T09:48:23.243Z,20.26
2016-12-21T09:49:23.586Z,20.29
2016-12-21T09:50:22.995Z,20.29
2016-12-21T09:51:23.337Z,20.31
2016-12-21T09:52:23.049Z,20.26
2016-12-21T09:53:23.694Z,20.23
2016-12-21T09:54:23.406Z,20.29
2016-12-21T09:55:23.434Z,20.24
2016-12-21T09:56:23.459Z,20.28
2016-12-21T09:57:23.484Z,20.16
2016-12-21T09:58:23.509Z,20.18
2016-12-21T09:59:23.850Z,20.18
2016-12-21T10:00:23.568Z,20.21
2016-12-21T10:01:23.600Z,20.14
2016-12-21T10:02:23.304Z,20.16
2016-12-21T10:03:23.641Z,20.17
2016-12-21T10:04:23.374Z,20.14
2016-12-21T10:05:23.713Z,20.17
2016-12-21T10:06:23.427Z,20.16
2016-12-21T10:07:23.792Z,20.21
2016-12-21T10:08:23.781Z,20.21
2016-12-21T10:09:23.510Z,20.14
2016-12-21T10:10:23.526Z,20.2
2016-12-21T10:11:23.867Z,20.21
2016-12-21T10:12:23.576Z,20.18
2016-12-21T10:13:23.614Z,20.18
2016-12-21T10:14:23.950Z,20.14
2016-12-21T10:15:23.662Z,20.18
2016-12-21T10:16:23.991Z,20.18
2016-12-21T10:17:23.716Z,20.13
2016-12-21T10:18:24.351Z,20.23
2016-12-21T10:19:24.378Z,20.16
2016-12-21T10:20:23.795Z,20.16
2016-12-21T10:21:23.823Z,20.18
2016-12-21T10:22:24.157Z,20.11
2016-12-21T10:23:24.177Z,20.01
2016-12-21T10:24:24.218Z,20.1
2016-12-21T10:25:24.239Z,20.14
2016-12-21T10:26:23.967Z,20.14
2016-12-21T10:27:24.289Z,20.08
2016-12-21T10:28:24.317Z,20.17
2016-12-21T10:29:24.035Z,20.11
2016-12-21T10:30:24.063Z,20.06
2016-12-21T10:31:24.704Z,20.13
2016-12-21T10:32:24.429Z,20.08
2016-12-21T10:33:24.758Z,20.03
2016-12-21T10:34:24.477Z,20.08
2016-12-21T10:35:24.799Z,20.05
2016-12-21T10:36:24.529Z,20.05
2016-12-21T10:37:24.865Z,20.16
2016-12-21T10:38:24.582Z,20.03
2016-12-21T10:39:24.346Z,20.03
2016-12-21T10:40:24.643Z,20.02
2016-12-21T10:41:24.672Z,20.05
2016-12-21T10:42:24.685Z,20.08
2016-12-21T10:43:24.405Z,20.08
2016-12-21T10:44:24.434Z,20.06
2016-12-21T10:45:24.496Z,20.11
2016-12-21T10:46:24.496Z,20.06
2016-12-21T10:47:24.826Z,20.08
2016-12-21T10:48:24.554Z,20.06
2016-12-21T10:49:25.183Z,20.02
2016-12-21T10:50:24.595Z,20.06
2016-12-21T10:51:24.619Z,20.05
2016-12-21T10:52:24.660Z,20.02
2016-12-21T10:53:24.989Z,20.05
2016-12-21T10:54:24.719Z,20.05
2016-12-21T10:55:25.055Z,20.06
2016-12-21T10:56:25.064Z,20.06
2016-12-21T10:57:25.404Z,20.02
2016-12-21T10:58:25.113Z,20.08
2016-12-21T10:59:24.839Z,20.03
2016-12-21T11:00:24.858Z,20.03
2016-12-21T11:01:24.895Z,20.05
2016-12-21T11:02:25.232Z,20.02
2016-12-21T11:03:25.248Z,20.05
2016-12-21T11:04:25.272Z,20.11
2016-12-21T11:05:25.010Z,20.02
2016-12-21T11:06:25.022Z,20.03
2016-12-21T11:07:25.047Z,20.01
2016-12-21T11:08:25.379Z,20.02
2016-12-21T11:09:25.109Z,19.99
2016-12-21T11:10:25.130Z,19.99
2016-12-21T11:11:25.462Z,20.11
2016-12-21T11:12:25.796Z,19.96
2016-12-21T11:13:25.819Z,20.03
2016-12-21T11:14:25.536Z,20.05
2016-12-21T11:15:25.565Z,20.01
2016-12-21T11:16:25.293Z,20.03
2016-12-21T11:17:25.622Z,20.01
2016-12-21T11:18:25.655Z,19.99
2016-12-21T11:19:25.368Z,20.03
2016-12-21T11:20:26.008Z,20.05
2016-12-21T11:21:25.723Z,20.05
2016-12-21T11:22:26.050Z,19.94
2016-12-21T11:23:25.478Z,20.03
2016-12-21T11:24:25.507Z,20.02
2016-12-21T11:25:25.531Z,20.01
2016-12-21T11:26:26.156Z,20.08
2016-12-21T11:27:26.197Z,20.05
2016-12-21T11:28:25.605Z,19.99
2016-12-21T11:29:25.952Z,20.03
2016-12-21T11:30:25.963Z,19.91
2016-12-21T11:31:25.688Z,19.96
2016-12-21T11:32:25.713Z,19.96
2016-12-21T11:33:25.750Z,20.02
2016-12-21T11:34:26.074Z,19.98
2016-12-21T11:35:26.104Z,20.03
2016-12-21T11:36:26.433Z,19.96
2016-12-21T11:37:26.157Z,20.02
2016-12-21T11:38:26.174Z,20.02
2016-12-21T11:39:25.911Z,19.94
2016-12-21T11:40:25.927Z,19.91
2016-12-21T11:41:25.952Z,19.91
2016-12-21T11:42:25.989Z,19.92
2016-12-21T11:43:26.614Z,19.94
2016-12-21T11:44:26.346Z,19.99
2016-12-21T11:45:26.680Z,19.98
2016-12-21T11:46:26.389Z,19.94
2016-12-21T11:47:26.417Z,19.94
2016-12-21T11:48:26.741Z,19.94
2016-12-21T11:49:26.475Z,20.02
2016-12-21T11:50:26.807Z,19.96
2016-12-21T11:51:26.877Z,19.95
2016-12-21T11:52:26.871Z,19.98
2016-12-21T11:53:26.270Z,19.98
2016-12-21T11:54:26.306Z,19.98
2016-12-21T11:55:26.635Z,19.96
2016-12-21T11:56:26.665Z,19.98
2016-12-21T11:57:26.677Z,20.03
2016-12-21T11:58:26.712Z,19.95
2016-12-21T11:59:27.054Z,19.99
2016-12-21T12:00:26.764Z,19.99
2016-12-21T12:01:26.788Z,19.99
2016-12-21T12:02:27.118Z,19.96
2016-12-21T12:03:26.542Z,19.91
2016-12-21T12:04:27.180Z,19.98
2016-12-21T12:05:27.212Z,19.98
2016-12-21T12:06:26.964Z,20.02
2016-12-21T12:07:26.658Z,19.98
2016-12-21T12:08:27.297Z,19.98
2016-12-21T12:09:27.003Z,19.96
2016-12-21T12:10:26.736Z,19.95
2016-12-21T12:11:26.760Z,19.92
2016-12-21T12:12:27.407Z,19.96
2016-12-21T12:13:27.111Z,19.99
2016-12-21T12:14:26.843Z,20.01
2016-12-21T12:15:27.484Z,19.96
2016-12-21T12:16:27.505Z,19.94
2016-12-21T12:17:27.213Z,19.95
2016-12-21T12:18:27.250Z,20.01
2016-12-21T12:19:27.268Z,19.95
2016-12-21T12:20:27.308Z,19.99
2016-12-21T12:21:27.329Z,19.92
2016-12-21T12:22:27.358Z,19.98
2016-12-21T12:23:27.082Z,19.94
2016-12-21T12:24:27.719Z,19.92
2016-12-21T12:25:27.427Z,19.95
2016-12-21T12:26:27.156Z,19.92
2016-12-21T12:27:27.185Z,19.94
2016-12-21T12:28:27.206Z,19.98
2016-12-21T12:29:27.851Z,19.96
2016-12-21T12:30:27.580Z,19.91
2016-12-21T12:31:27.605Z,19.96
2016-12-21T12:32:27.922Z,19.92
2016-12-21T12:33:27.938Z,19.98
2016-12-21T12:34:27.976Z,19.96
2016-12-21T12:35:27.712Z,19.96
2016-12-21T12:36:28.037Z,19.95
2016-12-21T12:37:28.061Z,19.96
2016-12-21T12:38:27.778Z,19.98
2016-12-21T12:39:27.811Z,20.03
2016-12-21T12:40:28.148Z,19.98
2016-12-21T12:41:27.864Z,19.96
2016-12-21T12:42:27.585Z,19.98
2016-12-21T12:43:28.222Z,19.94
2016-12-21T12:44:27.944Z,19.96
2016-12-21T12:45:27.976Z,19.95
2016-12-21T12:46:28.000Z,20.01
2016-12-21T12:47:27.721Z,19.88
2016-12-21T12:48:27.742Z,19.94
2016-12-21T12:49:28.070Z,19.96
2016-12-21T12:50:28.096Z,19.92
2016-12-21T12:51:28.440Z,19.94
2016-12-21T12:52:27.857Z,19.94
2016-12-21T12:53:28.182Z,19.98